Time;durP1;ratioP1;P1;durP2;ratioP2;P2;SDS_P1;SDS_P2;PMS_P1;PMS_P2;Temp;Humidity;BMP_temperature;BMP_pressure;BME280_temperature;BME280_humidity;BME280_pressure;Samples;Min_cycle;Max_cycle;Signal;HPM_P1;HPM_P2
2021/07/12 00:01:09;;;;;;;17.58;9.77;;;;;;;17.53;76.19;101153.63;5034856;28;20070;-65
2021/07/12 00:03:36;;;;;;;21.45;10.65;;;;;;;17.55;76.16;101161.47;5034624;28;20049;-65
2021/07/12 00:06:03;;;;;;;20.60;10.70;;;;;;;17.54;76.30;101151.78;5052277;28;20533;-65
2021/07/12 00:08:29;;;;;;;20.90;10.93;;;;;;;17.49;77.06;101148.84;5050366;28;20061;-65
2021/07/12 00:10:56;;;;;;;19.38;10.30;;;;;;;17.49;76.74;101146.97;5063777;28;20044;-65
2021/07/12 00:13:23;;;;;;;18.50;11.02;;;;;;;17.50;76.75;101147.81;5071968;28;20127;-65
2021/07/12 00:15:50;;;;;;;18.70;10.07;;;;;;;17.50;76.97;101148.66;5054385;28;20460;-65
2021/07/12 00:18:17;;;;;;;19.92;11.23;;;;;;;17.50;76.58;101147.81;5071757;28;20460;-65
2021/07/12 00:20:43;;;;;;;17.98;11.10;;;;;;;17.46;76.89;101150.03;5071991;28;20052;-65
2021/07/12 00:23:10;;;;;;;18.92;12.35;;;;;;;17.48;76.88;101148.00;5072225;28;20074;-65
2021/07/12 00:25:37;;;;;;;23.00;12.05;;;;;;;17.45;76.83;101146.53;5061718;28;20120;-65
2021/07/12 00:28:06;;;;;;;20.10;12.77;;;;;;;17.43;77.15;101139.69;5034318;28;20128;-65
2021/07/12 00:30:33;;;;;;;22.48;12.60;;;;;;;17.42;77.19;101128.13;5051765;28;20095;-65
2021/07/12 00:33:00;;;;;;;17.95;12.00;;;;;;;17.42;77.12;101136.16;5034222;28;20140;-65
2021/07/12 00:35:27;;;;;;;20.38;12.70;;;;;;;17.39;77.18;101131.22;5049984;28;20033;-65
2021/07/12 00:37:55;;;;;;;21.35;12.75;;;;;;;17.37;77.26;101135.06;5051624;28;20075;-65
2021/07/12 00:40:24;;;;;;;23.52;13.00;;;;;;;17.40;77.57;101132.03;5035505;28;20072;-65
2021/07/12 00:42:51;;;;;;;24.70;12.15;;;;;;;17.40;77.60;101135.53;5037654;28;20045;-65
2021/07/12 00:45:22;;;;;;;18.15;12.15;;;;;;;17.42;77.27;101133.47;5021224;28;20040;-65
2021/07/12 00:48:05;;;;;;;20.60;12.23;;;;;;;17.36;77.38;101136.13;5055373;28;20067;-65
2021/07/12 00:50:36;;;;;;;23.55;12.20;;;;;;;17.31;77.46;101130.47;5037422;28;20132;-65
2021/07/12 00:53:05;;;;;;;24.15;11.90;;;;;;;17.35;77.62;101132.59;5021068;28;20587;-65
2021/07/12 00:55:49;;;;;;;24.10;13.13;;;;;;;17.29;77.29;101135.22;5055343;28;20063;-65
2021/07/12 00:58:21;;;;;;;21.27;11.85;;;;;;;17.31;77.34;101128.63;5037353;28;20128;-64
2021/07/12 01:00:52;;;;;;;20.80;12.18;;;;;;;17.30;77.48;101126.97;5037331;28;20088;-65
2021/07/12 01:03:19;;;;;;;21.63;12.40;;;;;;;17.33;77.38;101115.03;5059888;28;20471;-65
2021/07/12 01:05:49;;;;;;;21.75;12.07;;;;;;;17.23;77.64;101123.38;5075097;28;20072;-65
2021/07/12 01:08:17;;;;;;;21.88;12.18;;;;;;;17.21;77.71;101114.72;5075049;28;20040;-65
2021/07/12 01:11:19;;;;;;;25.60;12.88;;;;;;;17.18;78.11;101107.03;5072960;28;20048;-65
2021/07/12 01:13:54;;;;;;;24.58;13.00;;;;;;;17.13;78.27;101104.91;5074491;28;20583;-65
2021/07/12 01:16:37;;;;;;;19.98;13.55;;;;;;;17.08;78.01;101104.63;5075003;28;20051;-65
2021/07/12 01:19:49;;;;;;;21.08;13.77;;;;;;;17.05;78.01;101103.16;5074501;28;20090;-65
2021/07/12 01:22:45;;;;;;;21.55;13.65;;;;;;;17.05;78.12;101100.50;5074783;28;20045;-65
2021/07/12 01:34:51;;;;;;;22.88;13.82;;;;;;;17.00;78.25;101096.72;5110227;27;20729;-64
2021/07/12 01:40:48;;;;;;;24.17;13.80;;;;;;;16.86;78.96;101093.03;5110451;27;20383;-65
2021/07/12 01:43:33;;;;;;;;;;;;;;;16.88;78.78;101088.31;5110867;28;20051;-64
2021/07/12 01:46:07;;;;;;;24.50;14.75;;;;;;;16.89;78.82;101085.44;5110627;28;19945;-64
2021/07/12 01:48:46;;;;;;;22.85;14.50;;;;;;;16.92;78.58;101080.72;5110678;28;20488;-64
2021/07/12 01:51:20;;;;;;;24.35;14.63;;;;;;;16.87;78.44;101075.94;5108295;28;20166;-64
2021/07/12 01:53:58;;;;;;;26.60;15.00;;;;;;;16.84;78.82;101069.09;5110076;28;20078;-64
2021/07/12 01:56:35;;;;;;;22.90;14.93;;;;;;;16.80;78.83;101065.13;5110265;28;20116;-64
2021/07/12 01:59:13;;;;;;;25.92;15.93;;;;;;;16.85;78.79;101069.97;5091737;28;20042;-64
2021/07/12 02:01:43;;;;;;;21.92;15.68;;;;;;;16.86;79.07;101066.25;5092566;28;20554;-64
2021/07/12 02:04:16;;;;;;;26.95;16.35;;;;;;;16.81;78.95;101069.47;5097679;28;20425;-64
2021/07/12 02:06:44;;;;;;;25.70;16.45;;;;;;;16.85;78.81;101062.75;5091797;28;20452;-64
2021/07/12 02:09:15;;;;;;;25.98;15.88;;;;;;;16.81;78.89;101061.44;5074872;28;20047;-64
2021/07/12 02:11:47;;;;;;;26.90;16.85;;;;;;;16.82;78.74;101060.41;5091216;28;20492;-64
2021/07/12 02:14:19;;;;;;;23.67;16.13;;;;;;;16.84;78.69;101070.97;5109792;28;20555;-64
2021/07/12 02:16:50;;;;;;;26.23;16.30;;;;;;;16.80;78.87;101067.78;5109921;28;20048;-64
2021/07/12 02:19:19;;;;;;;27.00;16.60;;;;;;;16.83;78.96;101072.81;5109388;28;20090;-64
2021/07/12 02:21:52;;;;;;;27.27;16.27;;;;;;;16.78;79.16;101072.50;5091886;28;20423;-64
2021/07/12 02:24:33;;;;;;;30.23;16.98;;;;;;;16.75;79.10;101070.19;5100949;28;20047;-64
2021/07/12 02:27:02;;;;;;;26.48;16.35;;;;;;;16.72;78.96;101067.91;5109633;28;20048;-64
2021/07/12 02:29:31;;;;;;;24.73;16.40;;;;;;;16.60;79.50;101061.34;5109504;28;20408;-64
2021/07/12 02:31:59;;;;;;;27.05;17.38;;;;;;;16.66;79.13;101058.78;5109405;28;20435;-64
2021/07/12 02:34:44;;;;;;;30.88;16.35;;;;;;;16.70;79.15;101062.75;5109336;28;20050;-64
2021/07/12 02:37:13;;;;;;;25.25;16.65;;;;;;;16.68;79.26;101064.78;5109338;28;20129;-64
2021/07/12 02:39:41;;;;;;;27.15;16.70;;;;;;;16.58;79.62;101056.19;5108878;28;20044;-64
2021/07/12 02:42:09;;;;;;;29.05;17.80;;;;;;;16.47;79.76;101054.81;5109061;28;20047;-64
2021/07/12 02:44:43;;;;;;;29.23;16.70;;;;;;;16.50;79.85;101061.66;5109537;28;20114;-64
2021/07/12 02:47:12;;;;;;;28.38;17.00;;;;;;;16.55;79.93;101066.44;5074286;28;20510;-64
2021/07/12 02:49:41;;;;;;;28.52;18.80;;;;;;;16.57;79.88;101056.38;5089849;28;20061;-64
2021/07/12 02:52:20;;;;;;;28.83;17.60;;;;;;;16.54;80.24;101060.25;5093668;28;20044;-64
2021/07/12 02:54:50;;;;;;;27.60;17.40;;;;;;;16.56;79.91;101054.72;5077249;28;20044;-64
2021/07/12 02:57:17;;;;;;;30.13;18.60;;;;;;;16.54;80.33;101052.22;5077315;28;20047;-64
2021/07/12 02:59:44;;;;;;;27.35;17.98;;;;;;;16.53;80.35;101055.91;5044481;28;20047;-64
2021/07/12 03:02:12;;;;;;;30.02;18.70;;;;;;;16.49;80.33;101049.25;5095076;28;20048;-64
2021/07/12 03:04:39;;;;;;;28.00;18.40;;;;;;;16.54;80.24;101054.06;5077811;28;20047;-64
2021/07/12 03:07:14;;;;;;;29.23;19.00;;;;;;;16.49;79.89;101058.13;5077275;28;20044;-64
2021/07/12 03:09:44;;;;;;;29.67;18.80;;;;;;;16.47;80.22;101052.13;5095448;28;20139;-64
2021/07/12 03:12:21;;;;;;;27.40;18.67;;;;;;;16.48;79.84;101047.59;5077012;28;20044;-64
2021/07/12 03:15:00;;;;;;;33.63;19.45;;;;;;;16.50;79.59;101046.41;5095055;28;20044;-64
2021/07/12 03:17:31;;;;;;;31.05;19.23;;;;;;;16.44;79.80;101041.78;5095210;28;20478;-63
2021/07/12 03:20:00;;;;;;;31.55;19.50;;;;;;;16.40;79.93;101032.47;5094949;28;20040;-63
2021/07/12 03:22:29;;;;;;;29.48;19.13;;;;;;;16.43;79.86;101020.56;5093327;28;20056;-63
2021/07/12 03:24:58;;;;;;;28.65;19.27;;;;;;;16.46;79.76;101015.66;5090658;28;20047;-63
2021/07/12 03:27:27;;;;;;;30.17;20.23;;;;;;;16.45;79.64;101002.47;5075985;28;20054;-63
2021/07/12 03:29:56;;;;;;;33.15;20.30;;;;;;;16.49;79.83;101022.50;5057767;28;20124;-63
2021/07/12 03:32:25;;;;;;;31.30;20.85;;;;;;;16.48;79.72;101020.81;5074652;28;20497;-63
2021/07/12 03:34:58;;;;;;;33.72;20.80;;;;;;;16.47;79.97;101028.03;5056590;28;20048;-63
2021/07/12 03:37:25;;;;;;;32.53;20.75;;;;;;;16.56;79.82;101017.22;5074004;28;20432;-63
2021/07/12 03:39:53;;;;;;;29.73;19.70;;;;;;;16.53;79.49;101028.31;5055962;28;20052;-64
2021/07/12 03:42:21;;;;;;;29.42;20.23;;;;;;;16.61;79.46;101030.91;5073978;28;20404;-63
2021/07/12 03:44:53;;;;;;;30.13;20.45;;;;;;;16.48;79.97;101024.34;5023981;28;20051;-64
2021/07/12 03:47:28;;;;;;;30.40;20.67;;;;;;;16.55;79.64;101026.25;5056831;28;20047;-63
2021/07/12 03:50:06;;;;;;;34.65;21.15;;;;;;;16.53;79.63;101022.94;5071969;28;20036;-63
2021/07/12 03:52:39;;;;;;;35.30;20.70;;;;;;;16.49;79.64;101019.81;5074327;28;20044;-65
2021/07/12 03:55:06;;;;;;;32.97;20.55;;;;;;;16.49;79.67;101014.47;5074756;28;20142;-65
2021/07/12 03:57:33;;;;;;;37.10;20.50;;;;;;;16.54;79.54;101022.75;5094066;28;20408;-64
2021/07/12 04:00:00;;;;;;;31.35;20.77;;;;;;;16.50;79.74;101008.91;5075790;28;20043;-64
2021/07/12 04:02:50;;;;;;;35.63;26.67;;;;;;;16.44;79.87;101001.59;5109470;27;20423;-63
2021/07/12 04:05:23;;;;;;;36.92;26.55;;;;;;;16.40;80.09;101004.88;5107978;28;20408;-63
2021/07/12 04:07:52;;;;;;;33.50;22.58;;;;;;;16.46;79.89;101009.47;5092385;28;20039;-63
2021/07/12 04:10:20;;;;;;;33.20;20.95;;;;;;;16.50;79.33;101008.91;5110349;28;20047;-64
2021/07/12 04:12:47;;;;;;;32.13;20.85;;;;;;;16.63;79.20;100994.88;5109853;28;20441;-64
2021/07/12 04:15:16;;;;;;;30.08;20.70;;;;;;;16.65;78.88;100997.34;5110202;28;20503;-63
2021/07/12 04:17:43;;;;;;;30.40;19.92;;;;;;;16.65;78.80;100984.78;5099625;28;20044;-64
2021/07/12 04:20:11;;;;;;;32.00;19.88;;;;;;;16.64;78.77;100999.19;5091856;28;20059;-63
2021/07/12 04:22:38;;;;;;;27.85;19.83;;;;;;;16.71;78.52;100991.22;5108527;28;20046;-63
2021/07/12 04:25:06;;;;;;;29.33;19.15;;;;;;;16.74;78.75;101006.13;5091879;28;20168;-63
2021/07/12 04:27:33;;;;;;;27.60;19.98;;;;;;;16.75;78.85;101003.22;5108074;28;20038;-64
2021/07/12 04:30:00;;;;;;;29.90;19.38;;;;;;;16.77;78.71;101008.41;5109982;28;20050;-64
2021/07/12 04:32:27;;;;;;;31.88;19.83;;;;;;;16.80;78.38;101016.88;5108632;28;20044;-65
2021/07/12 04:34:54;;;;;;;33.20;19.30;;;;;;;16.88;77.84;101013.28;5108556;28;20523;-65
2021/07/12 04:37:21;;;;;;;28.38;19.20;;;;;;;16.89;77.79;101006.94;5108732;28;20118;-66
2021/07/12 04:39:48;;;;;;;33.55;19.30;;;;;;;16.89;78.25;101005.06;5108319;27;20060;-65
2021/07/12 04:42:15;;;;;;;29.92;19.90;;;;;;;16.89;78.51;101007.75;5109130;28;20117;-64
2021/07/12 04:44:41;;;;;;;30.20;19.25;;;;;;;16.88;78.64;101000.75;5091762;28;20071;-65
2021/07/12 04:47:08;;;;;;;31.02;19.83;;;;;;;16.95;78.16;101006.16;5107441;28;20138;-65
2021/07/12 04:49:35;;;;;;;31.17;18.58;;;;;;;16.93;77.90;100988.63;5108925;28;20051;-64
2021/07/12 04:52:03;;;;;;;37.10;19.05;;;;;;;16.99;78.08;100993.22;5108111;28;20066;-64
2021/07/12 04:54:29;;;;;;;27.55;19.40;;;;;;;17.01;78.07;100993.88;5108976;28;20453;-64
2021/07/12 04:56:56;;;;;;;30.02;18.88;;;;;;;16.98;78.14;100986.22;5109339;28;20060;-64
2021/07/12 04:59:27;;;;;;;30.20;18.45;;;;;;;17.04;78.02;100991.63;5109256;28;20070;-64
2021/07/12 05:01:55;;;;;;;28.40;19.40;;;;;;;17.00;78.21;100987.66;5109025;28;20044;-64
2021/07/12 05:04:22;;;;;;;30.00;19.05;;;;;;;17.11;77.91;100983.66;5108293;28;20044;-63
2021/07/12 05:06:49;;;;;;;35.20;19.65;;;;;;;17.11;77.61;100978.28;5109225;28;20068;-64
2021/07/12 05:09:15;;;;;;;29.25;18.02;;;;;;;17.18;77.73;100979.19;5107695;28;20044;-64
2021/07/12 05:11:42;;;;;;;32.20;18.92;;;;;;;17.16;77.68;100980.41;5108868;28;20044;-63
2021/07/12 05:14:09;;;;;;;28.60;18.35;;;;;;;17.20;77.14;100985.19;5076161;28;20413;-64
2021/07/12 05:16:36;;;;;;;30.80;17.60;;;;;;;17.24;77.31;100980.28;5077484;28;20040;-63
2021/07/12 05:19:03;;;;;;;28.67;17.90;;;;;;;17.28;77.71;100973.50;5077063;28;20043;-64
2021/07/12 05:21:30;;;;;;;27.38;17.75;;;;;;;17.31;77.64;100977.66;5095152;28;20048;-64
2021/07/12 05:23:57;;;;;;;31.15;17.60;;;;;;;17.38;77.54;100981.22;5077538;28;20123;-64
2021/07/12 05:26:24;;;;;;;28.38;17.80;;;;;;;17.41;77.36;100973.63;5077388;28;20050;-64
2021/07/12 05:28:51;;;;;;;26.15;17.92;;;;;;;17.45;76.58;100968.72;5085058;28;20122;-64
2021/07/12 05:31:18;;;;;;;31.67;16.85;;;;;;;17.50;76.35;100968.97;5074970;28;20067;-64
2021/07/12 05:33:45;;;;;;;27.42;17.13;;;;;;;17.51;76.25;100973.28;5075022;28;20531;-64
2021/07/12 05:36:12;;;;;;;30.65;16.65;;;;;;;17.55;75.82;100960.31;5073586;28;20044;-64
2021/07/12 05:38:38;;;;;;;25.95;16.83;;;;;;;17.52;75.77;100964.22;5073323;28;20144;-64
2021/07/12 05:41:05;;;;;;;28.77;16.33;;;;;;;17.48;76.31;100976.34;5072666;28;20106;-64
2021/07/12 05:43:33;;;;;;;26.65;17.13;;;;;;;17.59;76.20;100981.22;5074526;28;20047;-64
2021/07/12 05:46:00;;;;;;;26.13;16.25;;;;;;;17.62;74.66;100978.09;5074892;28;20102;-64
2021/07/12 05:48:27;;;;;;;24.48;15.68;;;;;;;17.74;75.02;100980.28;5075162;28;20048;-64
2021/07/12 05:50:54;;;;;;;26.48;15.60;;;;;;;17.78;74.75;100978.84;5106854;28;20372;-64
2021/07/12 05:53:21;;;;;;;24.60;15.93;;;;;;;17.73;74.53;100978.59;5080077;28;20051;-64
2021/07/12 05:55:48;;;;;;;24.58;16.05;;;;;;;17.76;75.16;100976.38;5093391;28;20122;-64
2021/07/12 05:58:15;;;;;;;22.42;15.35;;;;;;;17.96;75.15;100978.41;5076190;28;20051;-64
2021/07/12 06:00:42;;;;;;;26.58;16.55;;;;;;;17.95;74.21;100972.19;5093255;28;20071;-64
2021/07/12 06:03:10;;;;;;;26.90;15.30;;;;;;;18.00;74.70;100974.28;5094073;28;20518;-64
2021/07/12 06:05:36;;;;;;;23.52;15.07;;;;;;;18.03;74.58;100973.91;5093375;28;20059;-64
2021/07/12 06:08:04;;;;;;;26.23;15.32;;;;;;;18.10;74.91;100968.53;5092038;28;20393;-64
2021/07/12 06:10:31;;;;;;;24.33;16.10;;;;;;;18.17;74.43;100972.94;5093139;28;20066;-64
2021/07/12 06:12:57;;;;;;;28.13;15.75;;;;;;;18.21;73.97;100970.69;5092855;28;20118;-64
2021/07/12 06:15:24;;;;;;;22.73;14.88;;;;;;;18.17;73.08;100969.41;5093266;28;20123;-64
2021/07/12 06:17:51;;;;;;;24.83;15.45;;;;;;;18.18;73.60;100961.16;5092587;28;20119;-64
2021/07/12 06:20:18;;;;;;;27.10;15.80;;;;;;;18.19;73.89;100967.34;5092880;28;20109;-64
2021/07/12 06:22:47;;;;;;;29.83;15.68;;;;;;;18.14;73.03;100959.09;5094062;28;20040;-64
2021/07/12 06:25:16;;;;;;;26.55;15.98;;;;;;;18.13;74.48;100968.16;5074771;28;20396;-64
2021/07/12 06:27:43;;;;;;;26.63;15.15;;;;;;;18.18;73.97;100957.66;5093773;28;20047;-64
2021/07/12 06:30:11;;;;;;;29.27;15.27;;;;;;;18.26;73.51;100967.41;5092686;28;20056;-64
2021/07/12 06:32:37;;;;;;;25.95;16.13;;;;;;;18.22;73.58;100961.59;5094106;28;20044;-64
2021/07/12 06:35:05;;;;;;;26.40;15.60;;;;;;;18.18;74.16;100965.72;5090791;28;20435;-64
2021/07/12 06:37:32;;;;;;;26.13;16.20;;;;;;;18.21;74.23;100962.63;5075672;28;20520;-64
2021/07/12 06:40:00;;;;;;;28.05;16.15;;;;;;;18.21;73.85;100976.06;5093661;28;20131;-64
2021/07/12 06:42:27;;;;;;;24.55;14.98;;;;;;;18.26;73.48;100975.44;5092193;28;20032;-64
2021/07/12 06:45:01;;;;;;;29.90;16.60;;;;;;;18.21;73.90;100971.50;5092265;28;20048;-64
2021/07/12 06:47:28;;;;;;;28.10;15.45;;;;;;;18.19;74.05;100978.94;5092507;28;20040;-64
2021/07/12 06:50:02;;;;;;;25.63;15.45;;;;;;;18.23;74.94;100968.63;5092524;28;20071;-64
2021/07/12 06:52:28;;;;;;;27.08;16.20;;;;;;;18.12;74.91;100963.81;5092130;28;20080;-64
2021/07/12 06:54:55;;;;;;;27.02;15.95;;;;;;;18.15;76.03;100955.34;5092147;28;20156;-64
2021/07/12 06:57:23;;;;;;;26.50;16.00;;;;;;;18.14;75.65;100956.41;5075071;28;20130;-64
2021/07/12 06:59:51;;;;;;;23.95;15.20;;;;;;;18.21;75.23;100944.66;5092134;28;20503;-64
2021/07/12 07:02:18;;;;;;;26.50;14.23;;;;;;;18.27;73.84;100942.22;5091895;28;20071;-64
2021/07/12 07:04:52;;;;;;;28.77;14.60;;;;;;;18.30;74.28;100937.28;5091992;28;20097;-64
2021/07/12 07:07:19;;;;;;;23.20;14.23;;;;;;;18.34;74.75;100943.91;5090252;28;20089;-64
2021/07/12 07:09:46;;;;;;;25.48;14.00;;;;;;;18.40;74.43;100947.63;5091890;28;20048;-64
2021/07/12 07:12:12;;;;;;;23.77;13.90;;;;;;;18.44;74.06;100948.88;5092994;28;20153;-64
2021/07/12 07:14:45;;;;;;;19.38;12.48;;;;;;;18.60;73.39;100945.84;5093253;28;20048;-64
2021/07/12 07:17:11;;;;;;;25.92;13.23;;;;;;;18.66;72.85;100938.81;5074881;28;20093;-64
2021/07/12 07:19:38;;;;;;;19.52;12.75;;;;;;;18.84;71.75;100929.41;5091701;28;20139;-64
2021/07/12 07:22:05;;;;;;;21.25;12.80;;;;;;;18.95;72.00;100934.16;5075066;28;20081;-64
2021/07/12 07:24:46;;;;;;;20.83;12.63;;;;;;;19.11;71.15;100928.38;5092962;28;20052;-64
2021/07/12 07:27:20;;;;;;;19.67;11.75;;;;;;;19.11;71.33;100922.19;5092871;28;20040;-64
2021/07/12 07:29:46;;;;;;;18.55;12.38;;;;;;;19.25;70.98;100923.03;5085168;28;20054;-64
2021/07/12 07:32:13;;;;;;;18.80;11.45;;;;;;;19.23;72.02;100917.84;5071335;28;20040;-64
2021/07/12 07:34:44;;;;;;;20.42;11.18;;;;;;;19.37;70.95;100915.97;5069568;28;20102;-64
2021/07/12 07:37:11;;;;;;;18.90;11.48;;;;;;;19.50;69.56;100926.75;5075322;28;20052;-64
2021/07/12 07:39:38;;;;;;;20.33;10.93;;;;;;;19.54;69.98;100917.22;5077497;28;20098;-64
2021/07/12 07:42:17;;;;;;;20.45;11.40;;;;;;;19.67;69.98;100921.75;5087937;28;20036;-64
2021/07/12 07:44:44;;;;;;;18.95;10.80;;;;;;;19.79;68.91;100903.09;5078794;28;20039;-64
2021/07/12 07:47:11;;;;;;;16.65;10.80;;;;;;;19.96;69.58;100908.88;5072233;28;20150;-65
2021/07/12 07:49:38;;;;;;;20.35;11.30;;;;;;;19.89;69.23;100905.38;5088426;28;20048;-65
2021/07/12 07:52:05;;;;;;;18.65;10.70;;;;;;;19.92;69.22;100897.69;5091528;28;20093;-65
2021/07/12 07:54:32;;;;;;;18.35;10.43;;;;;;;20.16;68.38;100895.34;5090990;28;20043;-65
2021/07/12 07:56:59;;;;;;;16.35;10.30;;;;;;;20.16;67.64;100892.66;5071937;28;20049;-65
2021/07/12 07:59:25;;;;;;;17.92;10.25;;;;;;;20.19;67.26;100889.50;5081611;28;20048;-65
2021/07/12 08:01:52;;;;;;;17.75;10.15;;;;;;;20.10;68.00;100891.63;5091901;28;20048;-65
2021/07/12 08:04:19;;;;;;;16.98;8.93;;;;;;;20.08;67.43;100896.41;5091449;28;20036;-65
2021/07/12 08:06:46;;;;;;;15.88;9.23;;;;;;;20.41;66.32;100895.44;5076962;28;20106;-65
2021/07/12 08:09:13;;;;;;;16.73;9.13;;;;;;;20.49;66.43;100889.78;5075177;28;20041;-65
2021/07/12 08:11:40;;;;;;;15.60;9.63;;;;;;;20.37;67.30;100877.19;5085818;28;20427;-65
2021/07/12 08:14:07;;;;;;;17.80;9.10;;;;;;;20.40;66.51;100866.81;5083456;28;20036;-65
2021/07/12 08:16:34;;;;;;;15.15;9.45;;;;;;;20.41;66.14;100864.94;5080663;28;20036;-64
2021/07/12 08:19:00;;;;;;;16.58;10.40;;;;;;;20.43;66.73;100852.06;5088643;28;20131;-65
2021/07/12 08:21:27;;;;;;;15.05;8.93;;;;;;;20.74;64.90;100869.31;5090368;28;20044;-64
2021/07/12 08:23:54;;;;;;;13.35;8.50;;;;;;;20.70;65.22;100867.09;5087489;28;20048;-64
2021/07/12 08:26:21;;;;;;;19.75;11.90;;;;;;;20.73;64.04;100868.50;5090270;28;20120;-64
2021/07/12 08:28:48;;;;;;;12.65;7.38;;;;;;;20.94;62.28;100853.84;5088654;28;20040;-64
2021/07/12 08:31:17;;;;;;;12.43;7.53;;;;;;;20.93;63.41;100854.06;5087030;28;20040;-65
2021/07/12 08:33:44;;;;;;;15.40;7.80;;;;;;;21.00;63.99;100861.03;5088702;28;20068;-64
2021/07/12 08:36:13;;;;;;;11.25;7.57;;;;;;;21.09;63.72;100856.22;5080692;28;20047;-64
2021/07/12 08:38:40;;;;;;;13.93;6.70;;;;;;;21.24;60.96;100845.06;5054270;28;20041;-64
2021/07/12 08:41:07;;;;;;;12.68;6.85;;;;;;;21.23;62.30;100849.66;5071584;28;20109;-64
2021/07/12 08:43:35;;;;;;;15.38;8.05;;;;;;;21.41;61.93;100848.00;5088215;28;20047;-64
2021/07/12 08:46:15;;;;;;;15.10;6.82;;;;;;;21.41;61.48;100835.34;5111946;28;20046;-64
2021/07/12 08:48:42;;;;;;;13.43;7.88;;;;;;;21.61;61.44;100837.03;5073473;28;20044;-64
2021/07/12 08:51:09;;;;;;;21.05;6.93;;;;;;;21.67;61.94;100825.34;5079404;28;20147;-63
2021/07/12 08:53:37;;;;;;;12.65;7.00;;;;;;;21.65;62.28;100822.06;5093815;28;20139;-64
2021/07/12 08:56:04;;;;;;;12.07;6.18;;;;;;;21.78;59.34;100812.97;5092928;28;20063;-64
2021/07/12 08:58:34;;;;;;;551.85;40.00;;;;;;;21.89;59.69;100809.50;5082402;28;20041;-63
2021/07/12 09:01:04;;;;;;;23.55;7.72;;;;;;;21.97;60.70;100813.75;5080420;28;20051;-68
2021/07/12 09:03:34;;;;;;;64.78;8.52;;;;;;;22.13;56.98;100807.72;5091433;28;20043;-62
2021/07/12 09:06:21;;;;;;;13.40;5.88;;;;;;;22.41;57.88;100803.59;5091031;28;20063;-72
2021/07/12 09:11:30;;;;;;;10.60;6.00;;;;;;;22.22;59.42;100803.63;5089040;28;20954;-71
2021/07/12 09:14:10;;;;;;;12.15;5.60;;;;;;;22.33;55.84;100795.84;5070329;28;20047;-71
2021/07/12 09:19:20;;;;;;;10.02;5.20;;;;;;;22.43;55.16;100794.22;5105642;27;20394;-71
2021/07/12 09:21:54;;;;;;;9.68;5.38;;;;;;;22.65;55.80;100799.09;5106635;28;20036;-71
2021/07/12 09:29:48;;;;;;;11.02;5.90;;;;;;;22.77;54.47;100789.09;5007584;27;1174194;-71
2021/07/12 09:32:17;;;;;;;10.77;5.25;;;;;;;22.67;54.14;100794.28;5032437;28;20042;-72
2021/07/12 09:34:46;;;;;;;9.93;4.95;;;;;;;22.83;52.32;100798.16;5048783;28;20072;-72
2021/07/12 09:37:17;;;;;;;11.25;6.15;;;;;;;22.94;54.03;100783.81;5045898;28;20124;-72
2021/07/12 09:39:46;;;;;;;11.07;4.70;;;;;;;23.15;53.35;100782.41;5048211;28;20128;-72
2021/07/12 09:42:19;;;;;;;13.05;5.80;;;;;;;23.25;53.88;100791.81;5014044;28;20152;-72
2021/07/12 09:44:58;;;;;;;9.77;5.43;;;;;;;23.30;54.33;100781.97;5048564;28;20456;-72
2021/07/12 09:47:29;;;;;;;14.35;5.30;;;;;;;23.55;51.93;100783.53;5048064;28;20067;-71
2021/07/12 09:50:17;;;;;;;10.18;5.45;;;;;;;23.86;51.85;100781.47;5030546;28;20051;-71
2021/07/12 09:52:47;;;;;;;12.35;5.03;;;;;;;23.63;50.49;100776.91;5048327;28;20052;-72
2021/07/12 09:58:17;;;;;;;9.77;5.28;;;;;;;23.72;52.25;100775.47;5120387;27;20379;-71
2021/07/12 10:03:22;;;;;;;11.25;5.60;;;;;;;23.91;52.27;100762.63;5002201;27;1178281;-71
2021/07/12 10:05:53;;;;;;;10.63;5.30;;;;;;;24.05;50.65;100766.69;5027714;28;20049;-70
2021/07/12 10:08:21;;;;;;;11.02;4.90;;;;;;;24.12;52.46;100755.66;5029426;28;20081;-71
2021/07/12 10:10:48;;;;;;;18.08;5.78;;;;;;;24.24;50.27;100759.13;5037373;28;20490;-71
2021/07/12 10:13:14;;;;;;;10.65;4.78;;;;;;;24.28;49.71;100756.75;5047999;28;20112;-71
2021/07/12 10:15:41;;;;;;;10.88;4.70;;;;;;;24.26;47.69;100761.59;5026371;28;20569;-72
2021/07/12 10:18:09;;;;;;;11.43;4.40;;;;;;;24.21;48.23;100751.50;5041028;28;20124;-71
2021/07/12 10:20:37;;;;;;;11.23;5.10;;;;;;;24.37;48.95;100744.44;5011019;28;20059;-71
2021/07/12 10:23:06;;;;;;;11.75;4.80;;;;;;;24.37;49.92;100743.63;5030397;28;20065;-72
2021/07/12 10:25:35;;;;;;;14.85;4.78;;;;;;;24.53;48.76;100749.06;5048212;28;20040;-71
2021/07/12 10:28:05;;;;;;;12.30;4.95;;;;;;;24.63;51.01;100744.88;5047815;28;20576;-72
2021/07/12 10:30:40;;;;;;;8.32;4.85;;;;;;;24.64;49.37;100741.13;5033666;28;20133;-72
2021/07/12 10:33:09;;;;;;;8.52;4.78;;;;;;;24.66;48.12;100745.22;5032197;28;20065;-72
2021/07/12 10:38:16;;;;;;;10.48;5.22;;;;;;;24.21;53.90;100729.00;5129277;27;20775;-71
2021/07/12 10:40:53;;;;;;;9.32;4.60;;;;;;;24.30;50.16;100736.50;5112865;28;20071;-71
2021/07/12 10:43:45;;;;;;;9.50;4.90;;;;;;;24.31;51.88;100732.69;5127857;27;20398;-72
2021/07/12 10:49:35;;;;;;;9.60;4.57;;;;;;;24.38;51.46;100734.44;5112803;27;20378;-71
2021/07/12 10:52:04;;;;;;;11.27;4.68;;;;;;;24.59;47.30;100733.72;5118301;27;20078;-72
2021/07/12 10:55:01;;;;;;;9.88;4.38;;;;;;;24.83;45.74;100738.94;5120064;28;20396;-70
2021/07/12 10:57:30;;;;;;;10.13;4.43;;;;;;;24.93;47.60;100732.84;5121733;28;20032;-71
2021/07/12 11:00:12;;;;;;;13.50;4.40;;;;;;;25.00;45.95;100728.88;5118721;28;20044;-71
2021/07/12 11:02:40;;;;;;;10.23;4.28;;;;;;;24.96;47.26;100727.75;5113044;27;20051;-72
2021/07/12 11:05:12;;;;;;;8.20;4.22;;;;;;;25.02;47.47;100728.66;5094624;28;20534;-71
2021/07/12 11:07:42;;;;;;;8.40;4.32;;;;;;;25.04;46.68;100729.22;5088008;28;20071;-71
2021/07/12 11:10:26;;;;;;;7.45;3.80;;;;;;;24.86;48.37;100728.41;5103085;27;20048;-73
2021/07/12 11:12:58;;;;;;;7.40;4.00;;;;;;;24.88;50.10;100731.69;5091785;28;20048;-72
2021/07/12 11:15:27;;;;;;;;;;;;;;;25.01;49.07;100725.13;5114023;27;20067;-71
2021/07/12 11:18:01;;;;;;;7.68;4.03;;;;;;;24.97;49.38;100734.00;5116407;28;20433;-72
2021/07/12 11:20:47;;;;;;;10.73;4.57;;;;;;;25.06;45.59;100730.59;5107779;28;20104;-72
2021/07/12 11:23:50;;;;;;;8.60;4.20;;;;;;;24.94;49.42;100729.06;5107231;28;20109;-72
2021/07/12 11:32:02;;;;;;;12.95;4.35;;;;;;;25.00;46.35;100730.78;5107827;27;20585;-72
2021/07/12 11:34:32;;;;;;;8.55;4.28;;;;;;;25.02;48.10;100721.31;5075642;28;20488;-72
2021/07/12 11:39:40;;;;;;;11.17;4.70;;;;;;;24.90;47.17;100723.31;5116103;27;20391;-72
2021/07/12 11:42:15;;;;;;;9.85;4.50;;;;;;;25.01;48.36;100730.53;5099316;28;20040;-70
2021/07/12 11:45:05;;;;;;;9.00;4.18;;;;;;;25.31;47.39;100726.59;5119546;28;20667;-72
2021/07/12 11:47:35;;;;;;;9.40;4.57;;;;;;;25.44;47.91;100730.84;5103363;28;20035;-71
2021/07/12 11:50:07;;;;;;;10.55;6.13;;;;;;;25.48;45.32;100729.25;5101945;28;20071;-72
2021/07/12 11:52:36;;;;;;;10.95;4.57;;;;;;;25.39;45.80;100730.78;5087127;28;20041;-72
2021/07/12 11:55:09;;;;;;;9.38;4.70;;;;;;;25.32;48.32;100730.13;5108931;28;20043;-72
2021/07/12 11:57:39;;;;;;;8.45;3.92;;;;;;;25.26;46.75;100738.22;5124247;27;20781;-72
2021/07/12 12:00:10;;;;;;;9.82;4.13;;;;;;;25.20;45.19;100735.66;5125823;28;20043;-71
2021/07/12 12:02:38;;;;;;;10.63;4.13;;;;;;;24.74;46.25;100733.16;5112764;28;20131;-72
2021/07/12 12:05:09;;;;;;;10.45;5.18;;;;;;;24.95;45.61;100728.00;5119624;28;20471;-72
2021/07/12 12:07:40;;;;;;;;;;;;;;;25.03;48.35;100732.97;5120654;28;20040;-71
2021/07/12 12:10:21;;;;;;;14.15;7.60;;;;;;;24.85;46.99;100734.94;5120445;28;19924;-71